Terminal Aerodrome Forecast
Issued by NWS North Platte, NE

Home | Current Version | Previous Version | Graphics & Text | Print | Product List | Glossary On
Versions: 1 2 3 4 5 6 7 8 9 10 11 12 13 14 15 16 17 18 19 20 21 22 23
000
FTUS43 KLBF 292300
TAFVTN
TAF
KVTN 292337Z 3000/3024 35012G22KT P6SM SCT080
     FM300300 29006KT P6SM SCT100 BKN150
     FM300800 VRB04KT 3SM BR SKC
     FM301500 15008KT P6SM SCT200=

USA.gov is the U.S. government's official web portal to all federal, state and local government web resources and services.